Time;durP1;ratioP1;P1;durP2;ratioP2;P2;SDS_P1;SDS_P2;PMS_P1;PMS_P2;Temp;Humidity;BMP_temperature;BMP_pressure;BME280_temperature;BME280_humidity;BME280_pressure;Samples;Min_cycle;Max_cycle;Signal;HPM_P1;HPM_P2
2021/09/16 00:00:02;;;;;;;14.73;11.40;;;;;;;16.96;100.00;100255.44;5001297;28;22387;-75
2021/09/16 00:02:38;;;;;;;14.87;12.07;;;;;;;16.95;100.00;100254.56;4995052;28;20204;-75
2021/09/16 00:05:05;;;;;;;19.27;11.60;;;;;;;16.97;100.00;100252.72;5001502;28;20334;-75
2021/09/16 00:07:32;;;;;;;14.80;10.90;;;;;;;16.97;100.00;100252.72;5003509;28;20480;-75
2021/09/16 00:09:58;;;;;;;15.20;11.50;;;;;;;16.98;100.00;100251.75;5000808;28;20295;-75
2021/09/16 00:12:24;;;;;;;16.30;11.33;;;;;;;16.97;100.00;100251.84;4998091;28;20231;-75
2021/09/16 00:14:51;;;;;;;12.40;10.57;;;;;;;16.96;100.00;100258.06;5001503;28;20691;-75
2021/09/16 00:17:19;;;;;;;12.70;9.90;;;;;;;16.95;100.00;100251.94;4996359;28;20223;-75
2021/09/16 00:19:46;;;;;;;14.57;10.87;;;;;;;16.95;100.00;100243.19;5000179;28;20818;-75
2021/09/16 00:22:12;;;;;;;13.80;10.90;;;;;;;16.94;100.00;100249.38;5002598;28;20216;-75
2021/09/16 00:24:39;;;;;;;10.73;9.53;;;;;;;16.94;100.00;100244.97;5005770;28;20211;-75
2021/09/16 00:27:05;;;;;;;18.00;10.37;;;;;;;16.95;100.00;100254.56;5002456;28;20287;-75
2021/09/16 00:29:32;;;;;;;14.27;10.10;;;;;;;16.96;100.00;100252.78;4997568;28;20518;-75
2021/09/16 00:31:58;;;;;;;11.10;9.13;;;;;;;16.96;100.00;100253.63;4999342;28;20207;-75
2021/09/16 00:34:27;;;;;;;10.83;9.17;;;;;;;16.97;100.00;100251.84;5003078;28;20309;-75
2021/09/16 00:36:53;;;;;;;11.97;8.20;;;;;;;16.98;100.00;100253.56;4999466;28;20330;-75
2021/09/16 00:39:20;;;;;;;12.87;9.37;;;;;;;16.96;100.00;100256.28;4997592;28;20945;-75
2021/09/16 00:41:46;;;;;;;10.93;9.33;;;;;;;16.98;100.00;100253.56;5000408;28;20969;-74
2021/09/16 00:44:12;;;;;;;9.80;8.63;;;;;;;17.01;100.00;100258.66;5001235;28;20209;-75
2021/09/16 00:46:39;;;;;;;10.70;8.57;;;;;;;17.01;100.00;100263.91;5003590;28;20228;-75
2021/09/16 00:49:06;;;;;;;10.63;8.33;;;;;;;17.01;100.00;100263.91;4998373;28;20216;-75
2021/09/16 00:51:35;;;;;;;13.27;8.10;;;;;;;17.02;100.00;100265.59;4997452;28;20762;-75
2021/09/16 00:54:03;;;;;;;10.57;7.90;;;;;;;17.04;100.00;100268.97;4997261;28;20224;-75
2021/09/16 00:56:30;;;;;;;9.43;7.87;;;;;;;17.06;100.00;100272.38;5003686;28;20229;-75
2021/09/16 00:59:00;;;;;;;8.60;7.50;;;;;;;17.07;100.00;100262.69;5000179;28;20323;-75
2021/09/16 01:01:27;;;;;;;7.67;6.87;;;;;;;17.08;100.00;100267.00;4994505;28;20219;-75
2021/09/16 01:03:53;;;;;;;9.90;7.33;;;;;;;17.10;100.00;100275.69;5000748;28;20207;-75
2021/09/16 01:06:20;;;;;;;9.40;6.97;;;;;;;17.12;100.00;100269.38;4996429;28;20220;-75
2021/09/16 01:08:48;;;;;;;8.17;6.93;;;;;;;17.12;100.00;100274.66;4996646;28;20212;-75
2021/09/16 01:11:15;;;;;;;9.30;7.17;;;;;;;17.13;100.00;100273.72;4999734;28;20200;-75
2021/09/16 01:13:43;;;;;;;8.37;6.93;;;;;;;17.13;100.00;100271.09;5002931;28;20216;-75
2021/09/16 01:16:09;;;;;;;9.00;6.97;;;;;;;17.16;100.00;100277.94;4993622;28;20275;-75
2021/09/16 01:18:36;;;;;;;8.57;6.80;;;;;;;17.17;100.00;100269.13;5000761;28;20205;-75
2021/09/16 01:21:02;;;;;;;9.83;7.30;;;;;;;17.18;100.00;100268.16;4995710;28;20230;-75
2021/09/16 01:23:30;;;;;;;9.23;7.20;;;;;;;17.20;100.00;100268.91;4999482;28;20215;-75
2021/09/16 01:25:56;;;;;;;8.50;7.13;;;;;;;17.23;100.00;100268.75;4997673;28;20250;-75
2021/09/16 01:28:23;;;;;;;9.90;7.40;;;;;;;17.22;100.00;100273.16;5001262;28;20235;-75
2021/09/16 01:30:49;;;;;;;10.47;7.03;;;;;;;17.24;100.00;100278.34;4998947;28;20212;-75
2021/09/16 01:33:16;;;;;;;9.70;7.77;;;;;;;17.27;100.00;100272.03;5004408;28;20699;-75
2021/09/16 01:35:43;;;;;;;9.70;7.77;;;;;;;17.29;100.00;100275.44;4999649;28;20332;-75
2021/09/16 01:38:10;;;;;;;10.63;7.77;;;;;;;17.29;100.00;100271.03;5002234;28;20414;-75
2021/09/16 01:40:37;;;;;;;10.50;8.00;;;;;;;17.31;100.00;100273.56;5001030;28;20204;-75
2021/09/16 01:43:04;;;;;;;9.33;7.70;;;;;;;17.31;100.00;100270.94;4989770;28;21384;-75
2021/09/16 01:45:30;;;;;;;11.93;7.97;;;;;;;17.32;100.00;100275.25;5000957;28;20200;-75
2021/09/16 01:47:57;;;;;;;8.90;7.97;;;;;;;17.32;100.00;100270.81;4989575;28;20236;-75
2021/09/16 01:50:26;;;;;;;8.97;7.37;;;;;;;17.32;100.00;100273.44;4999863;28;20416;-75
2021/09/16 01:52:53;;;;;;;10.07;8.50;;;;;;;17.34;100.00;100279.50;5001025;28;20304;-75
2021/09/16 01:55:20;;;;;;;11.70;9.03;;;;;;;17.34;100.00;100287.41;4999254;28;20227;-75
2021/09/16 01:57:48;;;;;;;10.50;9.10;;;;;;;17.36;100.00;100282.03;5001888;28;20232;-75
2021/09/16 02:00:15;;;;;;;10.63;9.27;;;;;;;17.36;100.00;100274.13;4996782;28;20198;-75
2021/09/16 02:02:42;;;;;;;11.77;9.13;;;;;;;17.36;100.00;100279.38;5003384;28;20204;-75
2021/09/16 02:05:10;;;;;;;14.10;9.77;;;;;;;17.36;100.00;100282.03;4993340;28;20280;-75
2021/09/16 02:07:36;;;;;;;10.37;8.97;;;;;;;17.36;100.00;100282.88;5000592;28;20220;-76
2021/09/16 02:10:04;;;;;;;11.10;9.80;;;;;;;17.36;100.00;100279.38;4995516;28;20210;-75
2021/09/16 02:12:30;;;;;;;12.77;10.00;;;;;;;17.35;100.00;100281.19;4999185;28;20213;-75
2021/09/16 02:14:58;;;;;;;13.27;10.87;;;;;;;17.35;100.00;100286.44;4995374;28;20657;-75
2021/09/16 02:17:25;;;;;;;12.67;10.03;;;;;;;17.34;100.00;100276.00;5001651;28;20238;-74
2021/09/16 02:19:51;;;;;;;11.50;9.87;;;;;;;17.33;100.00;100280.44;4998535;28;20685;-75
2021/09/16 02:22:17;;;;;;;14.47;10.87;;;;;;;17.33;100.00;100276.97;5005201;28;20286;-75
2021/09/16 02:24:44;;;;;;;13.87;11.20;;;;;;;17.30;100.00;100283.25;4999733;28;20203;-74
2021/09/16 02:27:10;;;;;;;15.10;11.73;;;;;;;17.28;100.00;100277.22;5003449;28;20221;-75
2021/09/16 02:29:36;;;;;;;15.47;11.43;;;;;;;17.28;100.00;100285.13;5006605;28;20262;-75
2021/09/16 02:32:05;;;;;;;16.70;11.93;;;;;;;17.28;100.00;100292.19;4999805;28;20238;-75
2021/09/16 02:34:32;;;;;;;13.83;11.33;;;;;;;17.27;100.00;100283.41;5003637;28;20236;-75
2021/09/16 02:36:58;;;;;;;17.67;12.73;;;;;;;17.26;100.00;100288.81;5001825;28;20240;-75
2021/09/16 02:39:24;;;;;;;17.73;12.17;;;;;;;17.27;100.00;100279.94;5001025;28;20590;-75
2021/09/16 02:41:51;;;;;;;18.27;13.13;;;;;;;17.27;100.00;100280.78;5000521;28;20227;-75
2021/09/16 02:44:17;;;;;;;15.47;12.93;;;;;;;17.25;100.00;100284.47;5001719;28;20232;-75
2021/09/16 02:46:43;;;;;;;20.93;13.93;;;;;;;17.26;100.00;100289.63;5009045;28;20224;-75
2021/09/16 02:49:11;;;;;;;18.83;12.83;;;;;;;17.27;100.00;100288.69;5002017;28;20205;-75
2021/09/16 02:51:37;;;;;;;17.40;14.00;;;;;;;17.28;100.00;100289.56;5004543;28;20291;-75
2021/09/16 02:54:04;;;;;;;17.17;13.27;;;;;;;17.29;100.00;100286.84;5003381;28;21526;-75
2021/09/16 02:56:30;;;;;;;20.03;13.13;;;;;;;17.30;100.00;100295.56;4996767;28;20229;-75
2021/09/16 02:58:57;;;;;;;17.30;14.00;;;;;;;17.32;100.00;100291.06;5003094;28;20206;-74
2021/09/16 03:01:23;;;;;;;17.17;14.10;;;;;;;17.31;100.00;100292.84;5004802;28;20205;-75
2021/09/16 03:03:49;;;;;;;19.53;14.67;;;;;;;17.33;100.00;100301.50;5003045;28;20208;-75
2021/09/16 03:06:17;;;;;;;19.27;14.60;;;;;;;17.32;100.00;100298.97;4999536;28;20819;-75
2021/09/16 03:08:43;;;;;;;18.67;14.40;;;;;;;17.32;100.00;100289.25;5004650;28;20754;-75
2021/09/16 03:11:10;;;;;;;18.63;14.10;;;;;;;17.33;100.00;100293.59;5002576;28;20212;-75
2021/09/16 03:13:36;;;;;;;20.03;14.87;;;;;;;17.34;100.00;100294.44;5000095;28;21007;-74
2021/09/16 03:16:03;;;;;;;19.87;14.60;;;;;;;17.34;100.00;100287.41;5003822;28;20239;-75
2021/09/16 03:18:29;;;;;;;20.17;13.97;;;;;;;17.35;100.00;100289.09;4999053;28;20224;-75
2021/09/16 03:20:55;;;;;;;19.33;14.93;;;;;;;17.35;100.00;100298.78;5000580;28;20308;-75
2021/09/16 03:23:23;;;;;;;17.60;14.00;;;;;;;17.37;100.00;100291.63;5004412;28;20288;-74
2021/09/16 03:25:50;;;;;;;18.13;14.93;;;;;;;17.35;100.00;100302.25;5001975;28;20224;-75
2021/09/16 03:28:16;;;;;;;19.67;14.67;;;;;;;17.37;100.00;100304.81;5003954;28;20204;-75
2021/09/16 03:30:42;;;;;;;20.73;14.73;;;;;;;17.37;100.00;100302.16;5003392;28;20594;-74
2021/09/16 03:33:09;;;;;;;17.20;13.70;;;;;;;17.36;100.00;100301.34;4996090;28;20244;-75
2021/09/16 03:35:35;;;;;;;19.03;14.33;;;;;;;17.36;100.00;100303.09;5003750;28;20232;-75
2021/09/16 03:38:02;;;;;;;20.80;14.47;;;;;;;17.34;100.00;100303.22;5001734;28;20259;-75
2021/09/16 03:40:29;;;;;;;18.60;14.50;;;;;;;17.37;100.00;100307.44;5003889;28;20713;-75
2021/09/16 03:42:56;;;;;;;19.80;14.10;;;;;;;17.36;100.00;100308.38;5000279;28;20206;-76
2021/09/16 03:45:22;;;;;;;16.80;13.73;;;;;;;17.36;100.00;100311.00;4997549;28;20693;-75
2021/09/16 03:47:49;;;;;;;17.00;13.93;;;;;;;17.34;100.00;100313.75;5001600;28;20212;-75
2021/09/16 03:50:15;;;;;;;20.87;14.27;;;;;;;17.35;100.00;100317.22;5001179;28;20202;-74
2021/09/16 03:52:42;;;;;;;18.80;14.53;;;;;;;17.35;100.00;100315.44;5005707;28;20374;-75
2021/09/16 03:55:09;;;;;;;20.00;14.13;;;;;;;17.33;100.00;100319.97;4996312;28;20303;-75
2021/09/16 03:57:36;;;;;;;18.87;13.60;;;;;;;17.33;100.00;100319.97;5001717;28;20704;-74
2021/09/16 04:00:06;;;;;;;19.83;14.03;;;;;;;17.34;100.00;100323.44;4996493;28;20211;-75
2021/09/16 04:02:32;;;;;;;18.57;13.40;;;;;;;17.34;100.00;100318.16;5004157;28;20741;-75
2021/09/16 04:04:59;;;;;;;19.67;13.63;;;;;;;17.32;100.00;100314.78;5000278;28;20509;-75
2021/09/16 04:07:25;;;;;;;18.70;13.90;;;;;;;17.32;100.00;100325.31;4999958;28;20250;-75
2021/09/16 04:09:51;;;;;;;17.83;14.07;;;;;;;17.32;100.00;100323.50;4996487;28;20208;-75
2021/09/16 04:12:18;;;;;;;20.07;13.90;;;;;;;17.31;100.00;100316.56;5003264;28;20259;-74
2021/09/16 04:14:45;;;;;;;17.80;13.17;;;;;;;17.32;100.00;100326.16;5001669;28;20243;-76
2021/09/16 04:17:12;;;;;;;18.23;13.67;;;;;;;17.31;100.00;100315.72;4999454;28;20225;-74
2021/09/16 04:19:38;;;;;;;18.00;13.60;;;;;;;17.29;100.00;100313.19;4995654;28;20259;-74
2021/09/16 04:22:05;;;;;;;19.13;14.37;;;;;;;17.29;100.00;100322.84;4995154;28;20209;-74
2021/09/16 04:24:31;;;;;;;21.00;14.07;;;;;;;17.27;100.00;100324.72;4997884;28;20202;-75
2021/09/16 04:26:58;;;;;;;20.07;13.77;;;;;;;17.26;100.00;100328.31;5002812;28;20212;-74
2021/09/16 04:29:24;;;;;;;16.97;13.30;;;;;;;17.25;100.00;100330.09;5002301;28;20714;-75
2021/09/16 04:31:52;;;;;;;20.03;13.70;;;;;;;17.23;100.00;100335.44;4996982;28;20287;-75
2021/09/16 04:34:18;;;;;;;18.03;14.10;;;;;;;17.25;100.00;100334.50;5001782;28;20753;-75
2021/09/16 04:36:45;;;;;;;17.27;13.50;;;;;;;17.22;100.00;100333.75;4993286;28;20239;-75
2021/09/16 04:39:11;;;;;;;16.60;12.97;;;;;;;17.21;100.00;100332.06;4998326;28;20208;-75
2021/09/16 04:41:37;;;;;;;16.87;13.20;;;;;;;17.20;100.00;100333.00;5003621;28;20215;-75
2021/09/16 04:44:04;;;;;;;17.40;13.03;;;;;;;17.20;100.00;100332.13;4999008;28;20204;-75
2021/09/16 04:46:31;;;;;;;16.23;13.30;;;;;;;17.19;100.00;100341.84;5000724;28;20224;-75
2021/09/16 04:48:59;;;;;;;17.63;13.33;;;;;;;17.18;100.00;100340.16;4999806;28;20209;-75
2021/09/16 04:51:25;;;;;;;17.77;13.53;;;;;;;17.18;100.00;100345.44;5002539;28;20860;-75
2021/09/16 04:53:51;;;;;;;18.47;13.00;;;;;;;17.17;100.00;100338.44;4999852;28;20201;-74
2021/09/16 04:56:18;;;;;;;20.60;13.50;;;;;;;17.17;100.00;100342.88;5001218;28;20315;-74
2021/09/16 04:58:44;;;;;;;20.83;14.53;;;;;;;17.16;100.00;100342.00;5002263;28;20579;-75
2021/09/16 05:01:11;;;;;;;20.27;13.47;;;;;;;17.17;100.00;100350.78;4995425;28;20219;-75
2021/09/16 05:03:37;;;;;;;19.77;13.83;;;;;;;17.15;100.00;100360.53;4997841;28;20211;-74
2021/09/16 05:06:05;;;;;;;18.80;13.13;;;;;;;17.12;100.00;100353.66;4995962;28;20220;-75
2021/09/16 05:08:31;;;;;;;20.67;14.43;;;;;;;17.12;100.00;100363.38;4996096;28;20225;-75
2021/09/16 05:10:57;;;;;;;17.40;14.03;;;;;;;17.12;100.00;100363.38;4998139;28;20216;-75
2021/09/16 05:13:24;;;;;;;17.83;13.50;;;;;;;17.12;100.00;100363.38;4998081;28;20205;-74
2021/09/16 05:15:50;;;;;;;19.97;14.70;;;;;;;17.10;100.00;100358.19;4999065;28;20315;-75
2021/09/16 05:18:17;;;;;;;19.30;14.03;;;;;;;17.08;100.00;100364.47;4999838;28;20215;-75
2021/09/16 05:20:43;;;;;;;20.83;14.70;;;;;;;17.07;100.00;100360.16;5003844;28;20295;-75
2021/09/16 05:23:11;;;;;;;17.37;13.87;;;;;;;17.06;100.00;100364.53;4993777;28;20213;-75
2021/09/16 05:25:37;;;;;;;20.27;14.23;;;;;;;17.05;100.00;100372.56;4997439;28;20454;-74
2021/09/16 05:28:04;;;;;;;20.33;13.83;;;;;;;17.03;100.00;100380.53;5001774;28;20333;-74
2021/09/16 05:30:31;;;;;;;23.40;14.03;;;;;;;17.04;100.00;100382.22;4999600;28;20204;-75
2021/09/16 05:32:57;;;;;;;22.23;15.20;;;;;;;17.02;100.00;100373.56;5000474;28;20200;-74
2021/09/16 05:35:23;;;;;;;22.57;15.50;;;;;;;17.00;100.00;100381.56;4996077;28;20237;-75
2021/09/16 05:37:50;;;;;;;19.37;14.70;;;;;;;17.02;100.00;100381.47;5001034;28;20215;-74
2021/09/16 05:40:18;;;;;;;20.27;14.80;;;;;;;17.01;100.00;100379.78;4999664;28;20209;-75
2021/09/16 05:42:44;;;;;;;19.90;14.97;;;;;;;17.02;100.00;100381.47;5000938;28;20597;-75
2021/09/16 05:45:11;;;;;;;23.23;15.93;;;;;;;17.02;100.00;100378.84;5000530;28;20290;-76
2021/09/16 05:47:38;;;;;;;21.33;14.57;;;;;;;17.03;100.00;100386.66;5001610;28;20538;-75
2021/09/16 05:50:05;;;;;;;19.63;14.10;;;;;;;17.04;100.00;100382.22;4998957;28;20212;-75
2021/09/16 05:52:31;;;;;;;20.07;15.57;;;;;;;17.05;100.00;100389.19;5003348;28;20206;-75
2021/09/16 05:54:57;;;;;;;23.30;15.17;;;;;;;17.07;100.00;100389.94;4994687;28;20216;-75
2021/09/16 05:57:25;;;;;;;21.27;15.40;;;;;;;17.09;100.00;100393.34;5002077;28;20339;-75
2021/09/16 05:59:52;;;;;;;22.90;15.63;;;;;;;17.12;100.00;100405.50;4999811;28;20211;-74
2021/09/16 06:02:19;;;;;;;24.20;16.23;;;;;;;17.16;100.00;100399.13;5002417;28;20200;-74
2021/09/16 06:04:45;;;;;;;24.63;16.97;;;;;;;17.22;100.00;100404.06;5000673;28;20214;-76
2021/09/16 06:07:12;;;;;;;27.03;18.33;;;;;;;17.32;100.00;100404.34;5000725;28;20244;-74
2021/09/16 06:09:38;;;;;;;33.17;19.77;;;;;;;17.44;100.00;100400.16;4999530;28;20217;-74
2021/09/16 06:12:07;;;;;;;29.13;18.90;;;;;;;17.57;100.00;100399.38;4996870;28;20706;-75
2021/09/16 06:14:35;;;;;;;29.73;19.27;;;;;;;17.68;100.00;100405.78;5000063;28;20239;-74
2021/09/16 06:17:02;;;;;;;29.77;19.73;;;;;;;17.73;100.00;100401.94;4997777;28;20232;-75
2021/09/16 06:19:29;;;;;;;25.97;18.27;;;;;;;17.82;100.00;100404.94;5000936;28;20216;-75
2021/09/16 06:21:55;;;;;;;25.93;18.67;;;;;;;17.82;100.00;100403.19;5000636;28;20209;-75
2021/09/16 06:24:22;;;;;;;23.47;16.07;;;;;;;17.82;100.00;100411.09;5003212;28;20213;-75
2021/09/16 06:26:48;;;;;;;24.40;16.73;;;;;;;17.78;100.00;100407.78;5001928;28;20578;-75
2021/09/16 06:29:15;;;;;;;22.93;15.27;;;;;;;17.75;100.00;100412.41;5000102;28;20208;-74
2021/09/16 06:31:42;;;;;;;22.43;14.93;;;;;;;17.73;100.00;100415.13;5003306;28;20213;-75
2021/09/16 06:34:09;;;;;;;21.30;15.30;;;;;;;17.67;100.00;100425.19;4995920;28;20205;-75
2021/09/16 06:36:35;;;;;;;20.93;14.13;;;;;;;17.61;100.00;100426.38;4998517;28;20234;-75
2021/09/16 06:39:02;;;;;;;17.73;12.37;;;;;;;17.58;100.00;100430.03;4998331;28;20219;-75
2021/09/16 06:41:28;;;;;;;15.30;12.00;;;;;;;17.51;100.00;100443.69;5002131;28;20208;-74
2021/09/16 06:43:54;;;;;;;14.57;11.47;;;;;;;17.45;100.00;100449.28;5008529;28;20295;-74
2021/09/16 06:46:21;;;;;;;14.77;10.63;;;;;;;17.42;100.00;100443.25;5000440;28;20231;-74
2021/09/16 06:48:49;;;;;;;11.80;9.53;;;;;;;17.39;100.00;100448.69;5000441;28;20262;-75
2021/09/16 06:51:15;;;;;;;13.63;9.73;;;;;;;17.43;100.00;100454.66;5001266;28;20205;-74
2021/09/16 06:53:42;;;;;;;16.07;9.70;;;;;;;17.40;100.00;100455.69;4996927;28;20485;-74
2021/09/16 06:56:08;;;;;;;11.70;9.07;;;;;;;17.35;100.00;100460.34;4996369;28;20239;-74
2021/09/16 06:58:35;;;;;;;9.87;8.43;;;;;;;17.32;100.00;100454.41;5000012;28;20214;-74
2021/09/16 07:01:01;;;;;;;9.83;8.07;;;;;;;17.36;100.00;100458.56;4997458;28;20209;-74
2021/09/16 07:03:28;;;;;;;12.97;7.97;;;;;;;17.24;100.00;100462.78;5000118;28;20212;-74
2021/09/16 07:05:56;;;;;;;10.07;7.40;;;;;;;17.18;100.00;100466.59;4996878;28;20219;-74
2021/09/16 07:08:22;;;;;;;9.93;7.50;;;;;;;17.17;100.00;100459.63;4999659;28;20206;-74
2021/09/16 07:10:49;;;;;;;9.77;7.00;;;;;;;17.12;100.00;100471.34;5001042;28;20201;-75
2021/09/16 07:13:15;;;;;;;11.17;7.53;;;;;;;17.11;100.00;100467.84;4996735;28;20219;-74
2021/09/16 07:15:41;;;;;;;10.73;8.00;;;;;;;17.08;100.00;100468.06;5006263;28;20231;-74
2021/09/16 07:18:08;;;;;;;11.67;8.23;;;;;;;17.07;100.00;100466.34;4999089;28;20572;-74
2021/09/16 07:20:34;;;;;;;9.57;8.10;;;;;;;17.10;100.00;100473.25;5003967;28;20319;-74
2021/09/16 07:23:02;;;;;;;12.00;9.00;;;;;;;17.20;100.00;100474.41;5002617;28;20690;-74
2021/09/16 07:25:29;;;;;;;11.40;9.07;;;;;;;17.23;100.00;100472.44;5004805;28;20211;-74
2021/09/16 07:27:55;;;;;;;10.20;8.80;;;;;;;17.31;100.00;100476.44;4999722;28;20209;-74
2021/09/16 07:30:22;;;;;;;9.73;7.73;;;;;;;17.35;100.00;100476.16;5004642;28;20862;-74
2021/09/16 07:32:48;;;;;;;7.77;6.67;;;;;;;17.40;100.00;100482.03;5000596;28;20199;-74
2021/09/16 07:35:15;;;;;;;8.30;6.70;;;;;;;17.47;100.00;100479.06;5005120;28;20215;-74
2021/09/16 07:37:41;;;;;;;8.53;6.30;;;;;;;17.59;100.00;100481.84;5005441;28;20222;-74
2021/09/16 07:40:11;;;;;;;6.30;5.60;;;;;;;17.65;100.00;100482.41;5004326;28;20214;-74
2021/09/16 07:42:37;;;;;;;7.30;5.63;;;;;;;17.65;100.00;100491.16;5005949;28;20586;-74
2021/09/16 07:45:05;;;;;;;6.00;5.03;;;;;;;17.74;100.00;100489.78;5004248;28;20214;-74
2021/09/16 07:47:31;;;;;;;5.83;5.23;;;;;;;17.76;100.00;100486.13;4999192;28;20235;-74
2021/09/16 07:49:58;;;;;;;8.93;6.27;;;;;;;17.84;100.00;100490.09;5000865;28;20220;-74
2021/09/16 07:52:24;;;;;;;10.13;6.47;;;;;;;17.88;100.00;100500.41;5001137;28;20636;-75
2021/09/16 07:54:51;;;;;;;8.27;6.50;;;;;;;17.87;100.00;100496.09;5001164;28;20201;-74
2021/09/16 07:57:18;;;;;;;9.70;6.20;;;;;;;17.78;100.00;100500.06;4998330;28;20891;-75
2021/09/16 07:59:45;;;;;;;7.60;6.13;;;;;;;17.87;100.00;100506.63;5003346;28;20304;-75
2021/09/16 08:02:11;;;;;;;7.43;5.40;;;;;;;17.89;100.00;100503.91;5001318;28;20551;-74
2021/09/16 08:04:37;;;;;;;8.30;5.07;;;;;;;18.00;100.00;100504.13;5002624;28;20303;-75
2021/09/16 08:07:04;;;;;;;7.33;4.77;;;;;;;18.13;100.00;100509.50;5003239;28;20895;-74
2021/09/16 08:09:30;;;;;;;6.27;4.47;;;;;;;18.06;100.00;100514.28;5004933;28;20299;-74
2021/09/16 08:11:57;;;;;;;6.47;4.73;;;;;;;18.12;100.00;100524.50;4999565;28;20204;-74
2021/09/16 08:14:24;;;;;;;4.80;3.77;;;;;;;18.17;98.64;100526.88;5003679;28;20215;-75
2021/09/16 08:16:51;;;;;;;5.33;3.60;;;;;;;18.08;94.79;100532.66;4998986;28;20224;-74
2021/09/16 08:19:17;;;;;;;4.70;2.90;;;;;;;17.97;94.36;100546.50;5003257;28;20228;-75
2021/09/16 08:21:43;;;;;;;3.50;3.17;;;;;;;17.88;94.97;100536.47;5000585;28;20208;-75
2021/09/16 08:24:10;;;;;;;3.77;3.30;;;;;;;17.84;97.17;100530.50;5004329;28;20237;-75
2021/09/16 08:26:37;;;;;;;4.73;3.43;;;;;;;17.74;96.98;100540.72;5004177;28;20322;-75
2021/09/16 08:29:03;;;;;;;7.10;3.30;;;;;;;17.57;96.54;100538.19;4993117;28;20201;-74
2021/09/16 08:31:31;;;;;;;3.50;3.10;;;;;;;17.40;97.20;100540.00;4998099;28;20214;-74
2021/09/16 08:33:57;;;;;;;3.13;2.77;;;;;;;17.32;97.53;100542.22;4999320;28;20208;-74
2021/09/16 08:36:24;;;;;;;5.33;3.20;;;;;;;17.31;98.68;100545.78;5000840;28;20667;-74
2021/09/16 08:38:50;;;;;;;4.73;2.97;;;;;;;17.24;98.70;100536.53;5001833;28;20640;-74
2021/09/16 08:41:17;;;;;;;3.47;2.70;;;;;;;17.22;97.90;100543.69;5000274;28;20232;-74
2021/09/16 08:43:44;;;;;;;2.50;2.30;;;;;;;17.20;97.17;100545.53;5000310;28;20211;-74
2021/09/16 08:46:11;;;;;;;3.30;2.70;;;;;;;17.20;98.16;100548.16;5003802;28;20225;-74
2021/09/16 08:48:39;;;;;;;2.40;2.20;;;;;;;17.30;95.92;100543.25;5003756;28;20619;-74
2021/09/16 08:51:05;;;;;;;2.23;1.93;;;;;;;17.44;94.49;100550.38;4998026;28;20619;-74
2021/09/16 08:53:32;;;;;;;2.43;2.00;;;;;;;17.70;98.38;100541.84;4997575;28;20212;-74
2021/09/16 08:56:01;;;;;;;2.77;2.27;;;;;;;17.88;96.13;100553.16;4998556;28;20850;-74
2021/09/16 08:58:29;;;;;;;2.87;1.90;;;;;;;17.95;92.50;100554.50;5002410;28;20212;-75
2021/09/16 09:00:55;;;;;;;1.97;1.77;;;;;;;18.03;91.63;100550.56;4999193;28;20657;-74
2021/09/16 09:03:22;;;;;;;2.10;1.90;;;;;;;18.10;89.94;100551.88;4990160;28;20746;-74
2021/09/16 09:05:49;;;;;;;2.20;1.73;;;;;;;18.06;90.43;100553.84;5002500;28;20226;-74
2021/09/16 09:08:22;;;;;;;2.40;1.90;;;;;;;17.96;89.13;100558.00;4996741;28;20204;-75
2021/09/16 09:10:50;;;;;;;1.60;1.40;;;;;;;17.98;91.15;100554.31;5000349;28;20213;-74
2021/09/16 09:13:22;;;;;;;3.40;1.80;;;;;;;17.96;87.59;100558.00;4998256;28;20788;-74
2021/09/16 09:15:58;;;;;;;4.13;1.77;;;;;;;18.15;91.45;100555.97;4996269;28;20323;-74
2021/09/16 09:18:25;;;;;;;2.00;1.70;;;;;;;18.15;89.59;100553.34;4999050;28;20209;-74
2021/09/16 09:20:59;;;;;;;2.80;1.80;;;;;;;18.26;88.54;100552.69;5002287;28;20215;-74
2021/09/16 09:23:29;;;;;;;2.87;1.63;;;;;;;18.37;85.66;100559.97;5000355;28;20295;-74
2021/09/16 09:25:56;;;;;;;2.87;1.43;;;;;;;18.43;85.19;100553.47;5000480;28;20236;-74
2021/09/16 09:28:28;;;;;;;2.90;1.63;;;;;;;18.49;86.92;100553.97;4997954;28;20299;-74
2021/09/16 09:30:55;;;;;;;2.33;1.77;;;;;;;18.57;86.44;100561.41;4998698;28;20208;-74
2021/09/16 09:33:29;;;;;;;1.73;1.53;;;;;;;18.59;85.47;100556.03;4996929;28;20202;-74
2021/09/16 09:36:05;;;;;;;1.80;1.67;;;;;;;18.67;84.20;100554.63;4998122;28;20239;-74
2021/09/16 09:38:54;;;;;;;2.17;1.70;;;;;;;18.76;84.21;100560.28;5001073;28;20267;-74
2021/09/16 09:41:39;;;;;;;2.13;1.70;;;;;;;18.87;83.74;100558.72;5001557;28;20200;-74
2021/09/16 09:44:08;;;;;;;2.03;1.83;;;;;;;18.80;83.11;100554.72;4995435;28;20227;-74
2021/09/16 09:46:44;;;;;;;3.13;1.60;;;;;;;18.70;83.62;100551.81;5003407;28;20266;-74
2021/09/16 09:49:14;;;;;;;1.60;1.50;;;;;;;18.70;85.64;100543.03;4999962;28;20212;-74
2021/09/16 09:51:45;;;;;;;2.00;1.67;;;;;;;18.65;86.34;100542.47;5000992;28;20212;-74
2021/09/16 09:54:16;;;;;;;4.53;1.80;;;;;;;18.51;85.99;100551.22;5000794;28;20662;-74
2021/09/16 09:56:57;;;;;;;1.60;1.50;;;;;;;18.55;85.11;100550.09;4996789;28;20836;-74
2021/09/16 09:59:25;;;;;;;2.13;1.70;;;;;;;18.61;84.91;100546.22;5002722;28;20671;-74
2021/09/16 10:01:53;;;;;;;1.93;1.43;;;;;;;18.70;85.34;100548.31;4993148;28;20232;-74
2021/09/16 10:04:27;;;;;;;1.70;1.53;;;;;;;18.75;84.53;100548.91;4996872;28;20205;-74
2021/09/16 10:06:55;;;;;;;1.60;1.30;;;;;;;18.84;86.57;100550.16;4993123;28;20223;-74
2021/09/16 10:09:22;;;;;;;1.50;1.40;;;;;;;18.82;80.24;100570.50;4999280;28;20735;-74
2021/09/16 10:11:50;;;;;;;2.67;1.30;;;;;;;18.88;78.16;100567.50;4995146;28;20666;-74
2021/09/16 10:14:17;;;;;;;1.30;1.20;;;;;;;18.98;83.07;100563.34;4999981;28;20653;-74
2021/09/16 10:16:45;;;;;;;1.30;1.20;;;;;;;19.05;81.87;100558.50;5001806;28;20363;-74
2021/09/16 10:19:12;;;;;;;1.37;1.20;;;;;;;19.04;79.95;100565.59;4999246;28;20503;-74
2021/09/16 10:21:39;;;;;;;1.70;1.30;;;;;;;19.14;78.68;100571.16;4992037;28;20200;-74
2021/09/16 10:24:09;;;;;;;1.60;1.30;;;;;;;19.11;79.20;100563.41;5000652;28;20213;-74
2021/09/16 10:26:37;;;;;;;1.33;1.23;;;;;;;19.10;77.55;100572.28;5000091;28;20223;-74
2021/09/16 10:29:04;;;;;;;2.17;1.10;;;;;;;19.21;77.09;100574.28;4993754;28;20333;-74
2021/09/16 10:31:31;;;;;;;1.93;1.30;;;;;;;19.19;76.96;100573.50;5002596;28;20213;-74
2021/09/16 10:33:57;;;;;;;1.30;1.10;;;;;;;19.15;75.32;100577.28;4996352;28;20212;-74
2021/09/16 10:36:24;;;;;;;2.20;1.30;;;;;;;19.17;76.45;100570.09;5005517;28;20242;-74
2021/09/16 10:38:53;;;;;;;1.63;1.40;;;;;;;19.19;77.87;100568.22;4998427;28;20583;-74
2021/09/16 10:41:27;;;;;;;1.60;1.10;;;;;;;19.10;75.07;100567.88;5001251;28;20203;-74
2021/09/16 10:44:20;;;;;;;1.00;0.90;;;;;;;19.10;75.60;100562.56;5002484;28;20215;-74
2021/09/16 10:46:48;;;;;;;1.83;1.10;;;;;;;19.04;74.55;100568.22;5001554;28;20323;-74
2021/09/16 10:49:32;;;;;;;1.33;1.10;;;;;;;19.13;74.70;100568.59;4999576;28;20213;-75
2021/09/16 10:52:00;;;;;;;1.57;1.20;;;;;;;19.05;75.77;100566.44;5001256;28;20259;-74
2021/09/16 10:54:41;;;;;;;1.77;0.90;;;;;;;19.08;76.99;100568.88;5004386;28;20754;-74
2021/09/16 10:57:11;;;;;;;1.10;1.00;;;;;;;18.98;75.45;100573.03;5000604;28;20228;-74
2021/09/16 11:00:18;;;;;;;1.20;1.10;;;;;;;18.87;75.80;100579.88;4999544;28;20204;-74
2021/09/16 11:03:12;;;;;;;2.80;1.07;;;;;;;18.80;78.01;100570.56;5003798;28;20206;-74
2021/09/16 11:05:51;;;;;;;2.33;1.30;;;;;;;18.78;77.42;100571.59;5004102;28;20314;-74
2021/09/16 11:08:19;;;;;;;1.30;1.20;;;;;;;18.71;76.94;100569.34;5004050;28;20207;-74
2021/09/16 11:10:51;;;;;;;1.27;1.10;;;;;;;18.64;78.40;100567.16;5002157;28;20215;-75
2021/09/16 11:13:54;;;;;;;1.27;1.17;;;;;;;18.52;79.04;100566.97;5000818;28;20204;-74